Aérodrome :
LOGIN :

S'inscrire | Disclaimer

   EN    FR    IT 

 










Légende :    VFR   VFR Marginal   IFR   IFR Intensif   IFR Très Intensif
Visi : 
Plafond : 
>= 8 km
>= 3000ft
5 à 8 km
1000 à 3000 ft
1500m à 5 km
500 à 1000 ft
800 à 1500m
200 à 500 ft
< 800m
< 200 ft
Symboles :   Orages  Brouillard  Fortes neiges  Fortes précipitations  Vent > 20 kt
SIGMETs :   Divers  Orages  Givrage  Turbulence  Onde Orograph.  Cendres Volcan.






- Altitude de l'aérodrome : 3 ft
- Code IATA : DHR


EHKD - Den Helder De Kooy

DERNIER METAR :
  • 201855Z AUTO 12009KT 090V150 0500 FG OVC000/// 02/02 Q1015 RED RMK TS INFO NOT AVBL

METARs EXPIRÉS :
  • 201825Z AUTO 11008KT 080V140 0400 -UP OVC000/// 02/02 Q1015 RED RMK TS INFO NOT AVBL
  • 201755Z AUTO 12009KT 070V150 0350 -UP OVC000 02/02 Q1015 RED
  • 201725Z AUTO 10008KT 070V130 0400 -UP OVC000 02/02 Q1016 RED
  • 201655Z AUTO 11009KT 080V140 0300 FG OVC000 03/02 Q1016 RED
  • 201638Z AUTO 11009KT 080V140 0300 FG OVC000 03/02 Q1016 RED
  • 201636Z AUTO 11009KT 080V140 0350 R03/0400D FG BKN000 03/02 Q1016 RED 10004KT 2000 BR BKN002 TEMPO 0400FG BKN001

TAF TAF EHKD
Valide du 20 à 14h jusqu'au 21 à 02h UTC


201401Z 2014/2102 12005KT CAVOK
BECMG 2015/2018 12010KT 2500 BR BKN002
PROB40
TEMPO 2015/2102 1000 BKN001



MET'MAP, la Météo Aéronautique d'un coup d'oeil ! - Copyright ORBIFLY Décembre 2007 - Disclaimer

ORBIFLY MET'MAP TEAM :

Programmation & Développement : Alexandra Zaïnal
Conception & Développement : Baudouin d'Aumeries
Co-Programmation & Développement : Marc-Olivier Méhu
Soutien technique & logistique : Manuel Goepfert

Contact : metmap@orbifly.com




SOURCES & CREDITS :

   NOAA